Time;durP1;ratioP1;P1;durP2;ratioP2;P2;SDS_P1;SDS_P2;PMS_P1;PMS_P2;Temp;Humidity;BMP_temperature;BMP_pressure;BME280_temperature;BME280_humidity;BME280_pressure;Samples;Min_cycle;Max_cycle;Signal;HPM_P1;HPM_P2
2023/04/13 00:00:29;;;;;;;1.60;1.10;;;9.20;93.40;;;;;;5053228;28;20076;-60
2023/04/13 00:02:55;;;;;;;2.13;1.10;;;9.10;93.00;;;;;;5051841;28;20021;-59
2023/04/13 00:05:22;;;;;;;0.90;0.90;;;9.00;93.50;;;;;;5053017;28;20025;-59
2023/04/13 00:07:48;;;;;;;1.48;1.38;;;8.90;92.60;;;;;;5053207;28;20025;-58
2023/04/13 00:10:17;;;;;;;1.40;1.20;;;8.80;93.30;;;;;;5052756;28;20507;-60
2023/04/13 00:12:47;;;;;;;1.50;1.17;;;8.70;93.30;;;;;;5052834;28;20048;-60
2023/04/13 00:15:14;;;;;;;2.28;1.10;;;8.60;92.60;;;;;;5052891;28;20427;-58
2023/04/13 00:17:41;;;;;;;1.30;1.17;;;8.50;91.30;;;;;;5052704;28;20064;-59
2023/04/13 00:20:13;;;;;;;1.20;1.10;;;8.40;91.20;;;;;;5052714;28;20017;-58
2023/04/13 00:22:43;;;;;;;2.50;1.33;;;8.50;91.80;;;;;;5052887;28;20017;-59
2023/04/13 00:25:10;;;;;;;1.10;1.10;;;8.40;91.70;;;;;;5052516;28;20059;-59
2023/04/13 00:27:39;;;;;;;1.10;1.10;;;8.30;92.20;;;;;;5052708;28;20032;-60
2023/04/13 00:30:16;;;;;;;1.10;1.10;;;8.30;92.10;;;;;;5051199;28;20116;-59
2023/04/13 00:32:44;;;;;;;1.10;1.10;;;8.20;92.60;;;;;;5052573;28;20025;-60
2023/04/13 00:35:17;;;;;;;1.20;1.10;;;8.10;91.80;;;;;;5052431;28;20032;-59
2023/04/13 00:37:43;;;;;;;;;;;8.10;92.80;;;;;;5052123;28;20032;-60
2023/04/13 00:40:10;;;;;;;1.00;1.00;;;8.10;92.90;;;;;;5052456;28;20315;-59
2023/04/13 00:42:36;;;;;;;2.13;1.10;;;8.10;92.10;;;;;;5052417;28;20079;-57
2023/04/13 00:45:02;;;;;;;1.40;1.30;;;8.10;93.10;;;;;;5052118;28;20013;-58
2023/04/13 00:47:32;;;;;;;1.00;1.00;;;8.00;93.80;;;;;;5052258;28;20442;-59
2023/04/13 00:50:03;;;;;;;1.20;1.10;;;8.00;94.30;;;;;;5052304;28;20021;-60
2023/04/13 00:52:28;;;;;;;1.77;1.13;;;8.00;94.20;;;;;;5052234;28;20052;-60
2023/04/13 00:54:56;;;;;;;1.10;1.10;;;7.90;95.40;;;;;;5050816;28;20052;-58
2023/04/13 00:57:24;;;;;;;1.10;1.10;;;7.90;95.60;;;;;;5052000;28;20033;-59
2023/04/13 00:59:51;;;;;;;1.15;1.15;;;7.90;96.40;;;;;;5052041;28;20017;-59
2023/04/13 01:02:17;;;;;;;2.50;1.15;;;7.80;96.50;;;;;;5051337;28;20017;-58
2023/04/13 01:04:48;;;;;;;1.33;1.20;;;7.90;96.40;;;;;;5051944;28;20037;-60
2023/04/13 01:07:43;;;;;;;1.30;1.20;;;7.90;96.90;;;;;;5051877;28;20025;-59
2023/04/13 01:10:25;;;;;;;1.02;1.02;;;7.80;97.60;;;;;;5051901;28;20582;-60
2023/04/13 01:13:20;;;;;;;1.40;1.30;;;7.80;98.10;;;;;;5051578;28;20120;-60
2023/04/13 01:16:00;;;;;;;2.28;1.10;;;7.90;97.60;;;;;;5051701;28;20392;-60
2023/04/13 01:18:27;;;;;;;1.13;1.00;;;7.90;97.10;;;;;;5051684;28;20025;-58
2023/04/13 01:20:53;;;;;;;1.20;1.20;;;7.90;96.80;;;;;;5050379;28;20021;-60
2023/04/13 01:24:01;;;;;;;1.27;1.20;;;7.90;96.70;;;;;;5051543;28;20025;-60
2023/04/13 01:26:44;;;;;;;1.35;1.35;;;7.90;96.70;;;;;;5045874;28;20408;-60
2023/04/13 01:29:17;;;;;;;1.40;1.30;;;7.90;97.50;;;;;;5051545;28;20025;-57
2023/04/13 01:31:43;;;;;;;1.10;1.10;;;7.90;97.10;;;;;;5051335;28;20066;-60
2023/04/13 01:34:15;;;;;;;1.02;1.02;;;7.80;97.30;;;;;;5051310;28;20028;-60
2023/04/13 01:36:42;;;;;;;2.92;1.50;;;7.80;97.30;;;;;;5051313;28;20074;-58
2023/04/13 01:39:09;;;;;;;2.20;1.48;;;7.70;98.00;;;;;;5050003;28;20419;-59
2023/04/13 01:41:35;;;;;;;0.98;0.98;;;7.70;98.90;;;;;;5051275;28;20024;-58
2023/04/13 01:44:01;;;;;;;1.35;1.33;;;7.80;98.30;;;;;;5051200;28;20029;-56
2023/04/13 01:46:30;;;;;;;1.40;1.30;;;7.80;98.00;;;;;;5051063;28;20031;-60
2023/04/13 01:48:59;;;;;;;1.30;1.30;;;7.80;97.80;;;;;;5051187;28;20411;-59
2023/04/13 01:51:30;;;;;;;1.48;1.30;;;7.80;97.70;;;;;;5051297;28;20020;-60
2023/04/13 01:54:18;;;;;;;6.15;2.05;;;7.70;96.80;;;;;;5051161;28;20452;-58
2023/04/13 01:56:44;;;;;;;1.30;1.30;;;7.80;96.90;;;;;;5051007;28;20036;-60
2023/04/13 01:59:11;;;;;;;1.25;1.15;;;7.70;95.30;;;;;;5051031;28;20025;-59
2023/04/13 02:01:37;;;;;;;1.40;1.10;;;7.50;93.00;;;;;;5049581;28;20053;-59
2023/04/13 02:04:04;;;;;;;7.38;4.65;;;7.60;94.60;;;;;;5050830;28;20028;-56
2023/04/13 02:06:29;;;;;;;11.25;5.85;;;7.60;94.10;;;;;;5050946;28;20059;-60
2023/04/13 02:08:55;;;;;;;33.20;12.00;;;7.60;94.40;;;;;;5050694;28;20052;-58
2023/04/13 02:11:21;;;;;;;74.95;27.92;;;7.60;92.80;;;;;;5050672;28;20419;-60
2023/04/13 02:13:46;;;;;;;19.15;8.65;;;7.60;91.50;;;;;;5050606;28;20052;-60
2023/04/13 02:16:12;;;;;;;11.15;5.75;;;7.50;93.00;;;;;;5050453;28;20067;-58
2023/04/13 02:18:42;;;;;;;3.03;2.78;;;7.50;93.70;;;;;;5049550;28;20044;-58
2023/04/13 02:21:08;;;;;;;3.58;3.28;;;7.50;93.60;;;;;;5050534;28;20024;-59
2023/04/13 02:23:39;;;;;;;2.67;1.38;;;7.50;94.10;;;;;;5050453;28;20025;-59
2023/04/13 02:26:09;;;;;;;1.60;1.55;;;7.60;93.60;;;;;;5050557;28;20083;-60
2023/04/13 02:28:35;;;;;;;1.35;1.20;;;7.60;92.60;;;;;;5050446;28;20064;-59
2023/04/13 02:31:04;;;;;;;1.40;1.40;;;7.60;92.00;;;;;;5050762;28;20029;-60
2023/04/13 02:33:31;;;;;;;1.42;1.30;;;7.60;92.20;;;;;;5050360;28;20031;-59
2023/04/13 02:36:02;;;;;;;1.30;1.25;;;7.60;91.30;;;;;;5049278;28;20057;-58
2023/04/13 02:38:29;;;;;;;1.52;1.42;;;7.50;91.80;;;;;;5050383;28;20025;-59
2023/04/13 02:40:59;;;;;;;1.10;1.10;;;7.50;92.60;;;;;;5050398;28;20027;-59
2023/04/13 02:43:27;;;;;;;1.55;1.35;;;7.50;93.30;;;;;;5050199;28;20104;-60
2023/04/13 02:45:53;;;;;;;1.20;1.20;;;7.50;94.10;;;;;;5050489;28;20053;-56
2023/04/13 02:48:20;;;;;;;1.50;1.40;;;7.40;93.70;;;;;;5050118;28;20021;-57
2023/04/13 02:50:46;;;;;;;1.50;1.20;;;7.30;93.50;;;;;;5050112;28;20025;-58
2023/04/13 02:53:12;;;;;;;3.85;1.35;;;7.30;93.90;;;;;;5050115;28;20432;-56
2023/04/13 02:55:38;;;;;;;1.40;1.30;;;7.30;92.80;;;;;;5050001;28;20063;-59
2023/04/13 02:58:05;;;;;;;1.20;1.20;;;7.30;92.90;;;;;;5050076;28;20041;-59
2023/04/13 03:00:34;;;;;;;1.73;1.40;;;7.30;92.60;;;;;;5050871;28;20555;-57
2023/04/13 03:03:02;;;;;;;1.20;1.20;;;7.30;92.70;;;;;;5054073;28;20055;-59
2023/04/13 03:05:30;;;;;;;1.63;1.40;;;7.20;93.10;;;;;;5054148;28;20056;-59
2023/04/13 03:07:56;;;;;;;1.45;1.45;;;7.20;94.00;;;;;;5054208;28;20025;-59
2023/04/13 03:10:22;;;;;;;3.35;1.30;;;7.20;94.00;;;;;;5053878;28;20108;-59
2023/04/13 03:12:48;;;;;;;1.65;1.55;;;7.20;94.50;;;;;;5052756;28;20112;-59
2023/04/13 03:15:14;;;;;;;1.98;1.70;;;7.10;94.40;;;;;;5053971;28;20037;-59
2023/04/13 03:17:40;;;;;;;1.30;1.20;;;7.00;96.10;;;;;;5054234;28;20492;-59
2023/04/13 03:20:15;;;;;;;1.38;1.30;;;7.00;96.20;;;;;;5053860;28;20021;-59
2023/04/13 03:22:43;;;;;;;1.42;1.33;;;7.10;96.50;;;;;;5054047;28;20036;-59
2023/04/13 03:25:09;;;;;;;1.23;1.23;;;7.10;96.00;;;;;;5053801;28;20052;-58
2023/04/13 03:27:35;;;;;;;1.40;1.40;;;7.00;96.20;;;;;;5053669;28;20056;-59
2023/04/13 03:30:02;;;;;;;1.60;1.20;;;7.00;97.00;;;;;;5053795;28;20387;-59
2023/04/13 03:32:28;;;;;;;2.35;1.45;;;7.00;97.00;;;;;;5052327;28;20158;-59
2023/04/13 03:34:54;;;;;;;21.92;12.45;;;7.00;97.40;;;;;;5053687;28;20489;-60
2023/04/13 03:37:20;;;;;;;39.47;20.58;;;6.90;97.10;;;;;;5053536;28;20044;-57
2023/04/13 03:39:45;;;;;;;3.83;2.28;;;6.90;98.40;;;;;;5053759;28;20016;-59
2023/04/13 03:42:11;;;;;;;5.47;3.50;;;6.90;98.70;;;;;;5053324;28;20071;-57
2023/04/13 03:44:37;;;;;;;24.77;11.43;;;7.00;97.00;;;;;;5053485;28;20017;-59
2023/04/13 03:47:02;;;;;;;41.42;19.25;;;6.90;94.90;;;;;;5053180;28;20116;-59
2023/04/13 03:49:31;;;;;;;30.67;12.90;;;6.90;96.30;;;;;;5052073;28;20123;-57
2023/04/13 03:51:57;;;;;;;9.07;4.50;;;6.90;96.90;;;;;;5053485;28;20036;-56
2023/04/13 03:54:23;;;;;;;49.45;21.50;;;6.90;97.50;;;;;;5053347;28;20380;-59
2023/04/13 03:56:49;;;;;;;62.25;22.98;;;6.90;98.10;;;;;;5053259;28;20108;-60
2023/04/13 03:59:15;;;;;;;2.53;1.75;;;6.90;98.00;;;;;;5053113;28;20029;-58
2023/04/13 04:01:41;;;;;;;1.30;1.30;;;6.80;95.50;;;;;;5053062;28;20025;-56
2023/04/13 04:04:21;;;;;;;2.20;2.00;;;6.10;71.00;;;;;;5053082;28;20071;-58
2023/04/13 04:06:48;;;;;;;1.20;1.20;;;5.90;76.00;;;;;;5053314;28;20025;-58
2023/04/13 04:09:14;;;;;;;1.30;1.30;;;5.60;63.20;;;;;;5052925;28;20029;-58
2023/04/13 04:11:40;;;;;;;3.95;1.67;;;5.40;73.30;;;;;;5052287;28;20408;-59
2023/04/13 04:14:10;;;;;;;1.30;1.30;;;5.30;79.30;;;;;;5052738;28;20106;-56
2023/04/13 04:16:36;;;;;;;1.50;1.40;;;5.40;85.20;;;;;;5052916;28;20021;-59
2023/04/13 04:19:02;;;;;;;1.40;1.40;;;5.30;76.70;;;;;;5052787;28;20020;-57
2023/04/13 04:21:32;;;;;;;4.18;3.47;;;5.40;81.80;;;;;;5052885;28;20404;-59
2023/04/13 04:24:01;;;;;;;2.53;2.30;;;5.40;80.90;;;;;;5053038;28;20025;-58
2023/04/13 04:26:28;;;;;;;2.65;2.45;;;5.40;77.30;;;;;;5052607;28;20439;-59
2023/04/13 04:29:00;;;;;;;2.75;2.30;;;5.40;78.10;;;;;;5052806;28;20027;-59
2023/04/13 04:31:30;;;;;;;2.50;2.30;;;5.40;78.30;;;;;;5052702;28;20107;-57
2023/04/13 04:33:56;;;;;;;4.85;3.17;;;5.40;81.30;;;;;;5052714;28;20036;-57
2023/04/13 04:36:23;;;;;;;2.15;1.92;;;5.40;81.80;;;;;;5052345;28;20104;-59
2023/04/13 04:38:48;;;;;;;1.30;1.30;;;5.50;85.30;;;;;;5052472;28;20107;-58
2023/04/13 04:41:19;;;;;;;1.60;1.48;;;5.50;84.40;;;;;;5052361;28;20109;-59
2023/04/13 04:43:45;;;;;;;1.95;1.50;;;5.60;83.20;;;;;;5052356;28;20017;-59
2023/04/13 04:46:14;;;;;;;1.50;1.40;;;5.60;85.30;;;;;;5052259;28;20387;-57
2023/04/13 04:48:40;;;;;;;1.60;1.50;;;5.60;86.10;;;;;;5052616;28;20029;-55
2023/04/13 04:51:07;;;;;;;1.38;1.38;;;5.60;84.30;;;;;;5052188;28;20025;-58
2023/04/13 04:53:33;;;;;;;2.45;1.65;;;5.60;87.00;;;;;;5052025;28;20025;-58
2023/04/13 04:55:59;;;;;;;2.70;1.40;;;5.60;87.50;;;;;;5052500;28;20070;-58
2023/04/13 04:58:25;;;;;;;2.25;1.73;;;5.60;89.50;;;;;;5050788;28;20033;-61
2023/04/13 05:00:51;;;;;;;1.77;1.67;;;5.60;90.10;;;;;;5050774;28;20500;-58
2023/04/13 05:03:19;;;;;;;1.65;1.55;;;5.60;89.50;;;;;;5052268;28;20021;-56
2023/04/13 05:05:44;;;;;;;1.83;1.60;;;5.60;89.60;;;;;;5052035;28;20066;-60
2023/04/13 05:08:10;;;;;;;2.63;1.40;;;5.60;90.30;;;;;;5051756;28;20124;-55
2023/04/13 05:10:44;;;;;;;1.75;1.65;;;5.60;91.00;;;;;;5051929;28;20064;-60
2023/04/13 05:13:10;;;;;;;1.65;1.65;;;5.60;91.90;;;;;;5050225;28;20139;-59
2023/04/13 05:15:35;;;;;;;2.13;1.48;;;5.60;91.30;;;;;;5051896;28;20414;-58
2023/04/13 05:18:04;;;;;;;1.35;1.35;;;5.60;92.70;;;;;;5051761;28;20017;-60
2023/04/13 05:20:32;;;;;;;1.45;1.40;;;5.70;92.50;;;;;;5051685;28;20036;-57
2023/04/13 05:22:58;;;;;;;1.60;1.50;;;5.70;92.40;;;;;;5051025;28;20021;-59
2023/04/13 05:25:24;;;;;;;1.77;1.67;;;5.70;91.50;;;;;;5050466;28;20411;-60
2023/04/13 05:27:49;;;;;;;9.73;1.80;;;5.70;92.80;;;;;;5051662;28;20052;-57
2023/04/13 05:30:15;;;;;;;1.85;1.70;;;5.70;90.80;;;;;;5051282;28;20100;-60
2023/04/13 05:32:42;;;;;;;1.95;1.85;;;5.70;91.30;;;;;;5051713;28;20124;-60
2023/04/13 05:35:09;;;;;;;4.22;1.92;;;5.70;91.10;;;;;;5051298;28;20388;-57
2023/04/13 05:37:35;;;;;;;2.00;1.90;;;5.70;92.00;;;;;;5051127;28;20124;-59
2023/04/13 05:40:07;;;;;;;2.03;1.85;;;5.70;91.40;;;;;;5050175;28;20480;-59
2023/04/13 05:42:32;;;;;;;2.47;1.67;;;5.70;91.70;;;;;;5051426;28;20036;-60
2023/04/13 05:44:58;;;;;;;2.00;1.90;;;5.60;91.40;;;;;;5051135;28;20025;-59
2023/04/13 05:47:23;;;;;;;2.10;2.00;;;5.60;92.30;;;;;;5051143;28;20377;-60
2023/04/13 05:49:50;;;;;;;2.50;2.10;;;5.70;93.30;;;;;;5051142;28;20543;-58
2023/04/13 05:52:16;;;;;;;1.67;1.58;;;5.70;93.10;;;;;;5050691;28;20476;-58
2023/04/13 05:54:42;;;;;;;2.22;2.03;;;5.80;93.30;;;;;;5051146;28;20032;-59
2023/04/13 05:57:13;;;;;;;1.90;1.80;;;5.80;92.60;;;;;;5050875;28;20104;-58
2023/04/13 05:59:39;;;;;;;2.10;1.88;;;5.80;92.60;;;;;;5050933;28;20384;-60
2023/04/13 06:02:05;;;;;;;2.00;1.90;;;5.80;93.50;;;;;;5050812;28;20025;-58
2023/04/13 06:04:30;;;;;;;4.65;1.60;;;5.80;93.50;;;;;;5050729;28;20021;-58
2023/04/13 06:06:56;;;;;;;2.05;1.90;;;5.90;92.80;;;;;;5050761;28;20388;-59
2023/04/13 06:09:22;;;;;;;3.67;2.15;;;5.90;93.10;;;;;;5050839;28;20036;-60
2023/04/13 06:11:48;;;;;;;3.83;1.60;;;5.90;93.50;;;;;;5050890;28;20036;-59
2023/04/13 06:14:15;;;;;;;1.85;1.75;;;5.90;93.20;;;;;;5050443;28;20049;-60
2023/04/13 06:16:41;;;;;;;1.92;1.70;;;5.90;93.00;;;;;;5049505;28;20025;-58
2023/04/13 06:19:07;;;;;;;1.98;1.80;;;6.00;94.10;;;;;;5050477;28;20123;-60
2023/04/13 06:21:33;;;;;;;1.98;1.88;;;5.90;94.40;;;;;;5050536;28;20104;-60
2023/04/13 06:23:58;;;;;;;3.63;1.80;;;5.80;95.30;;;;;;5050622;28;20040;-59
2023/04/13 06:26:24;;;;;;;1.67;1.58;;;5.90;94.70;;;;;;5049217;28;20025;-60
2023/04/13 06:28:50;;;;;;;1.90;1.80;;;6.00;94.00;;;;;;5050638;28;20116;-60
2023/04/13 06:31:15;;;;;;;1.73;1.63;;;6.00;93.40;;;;;;5050564;28;20388;-59
2023/04/13 06:33:42;;;;;;;1.60;1.50;;;6.00;91.80;;;;;;5050373;28;20387;-54
2023/04/13 06:36:08;;;;;;;5.47;1.92;;;5.90;91.80;;;;;;5049652;28;20017;-60
2023/04/13 06:38:33;;;;;;;2.28;1.88;;;6.00;94.70;;;;;;5050534;28;20017;-59
2023/04/13 06:41:03;;;;;;;2.53;1.90;;;6.00;94.00;;;;;;5050264;28;20051;-60
2023/04/13 06:43:29;;;;;;;4.30;1.90;;;6.10;93.30;;;;;;5050494;28;20029;-59
2023/04/13 06:45:58;;;;;;;3.92;2.08;;;6.20;93.30;;;;;;5050540;28;20020;-60
2023/04/13 06:48:24;;;;;;;2.63;2.03;;;6.30;93.20;;;;;;5050105;28;20065;-60
2023/04/13 06:50:51;;;;;;;2.33;2.20;;;6.30;92.40;;;;;;5050349;28;20059;-60
2023/04/13 06:53:17;;;;;;;1.65;1.55;;;6.40;87.80;;;;;;5050232;28;20029;-58
2023/04/13 06:55:43;;;;;;;2.55;1.55;;;6.50;82.80;;;;;;5050143;28;20491;-57
2023/04/13 06:58:10;;;;;;;1.60;1.50;;;6.50;81.50;;;;;;5050598;28;20104;-60
2023/04/13 07:00:36;;;;;;;1.50;1.40;;;6.50;86.70;;;;;;5050344;28;20271;-59
2023/04/13 07:03:02;;;;;;;1.33;1.33;;;6.50;83.50;;;;;;5049940;28;20017;-60
2023/04/13 07:05:28;;;;;;;1.35;1.25;;;6.60;80.70;;;;;;5050057;28;20386;-60
2023/04/13 07:07:55;;;;;;;1.60;1.50;;;6.70;75.90;;;;;;5050322;28;20029;-60
2023/04/13 07:10:22;;;;;;;1.38;1.27;;;6.60;82.30;;;;;;5050004;28;20037;-59
2023/04/13 07:12:47;;;;;;;3.75;1.42;;;6.70;66.90;;;;;;5050143;28;20116;-60
2023/04/13 07:15:13;;;;;;;2.75;2.13;;;6.70;75.00;;;;;;5049922;28;20115;-60
2023/04/13 07:17:39;;;;;;;1.48;1.38;;;6.70;71.30;;;;;;5049803;28;20028;-57
2023/04/13 07:20:06;;;;;;;1.90;1.80;;;6.70;77.10;;;;;;5049980;28;20017;-58
2023/04/13 07:22:35;;;;;;;1.42;1.33;;;6.80;68.70;;;;;;5050207;28;20063;-60
2023/04/13 07:25:01;;;;;;;1.60;1.50;;;6.70;68.10;;;;;;5049842;28;20028;-60
2023/04/13 07:27:27;;;;;;;1.30;1.20;;;6.70;74.00;;;;;;5050052;28;20036;-60
2023/04/13 07:29:54;;;;;;;1.50;1.40;;;6.80;74.90;;;;;;5050100;28;20033;-60
2023/04/13 07:32:20;;;;;;;1.30;1.30;;;6.90;78.60;;;;;;5048341;28;20120;-57
2023/04/13 07:34:46;;;;;;;1.80;1.42;;;7.10;65.90;;;;;;5049917;28;20044;-59
2023/04/13 07:37:11;;;;;;;2.22;1.45;;;7.00;68.20;;;;;;5049718;28;20064;-59
2023/04/13 07:39:37;;;;;;;2.53;1.50;;;7.10;49.50;;;;;;5049828;28;20094;-59
2023/04/13 07:42:03;;;;;;;1.67;1.33;;;7.10;58.60;;;;;;5049796;28;20480;-60
2023/04/13 07:44:29;;;;;;;1.83;1.52;;;7.00;59.20;;;;;;5048570;28;20531;-60
2023/04/13 07:46:57;;;;;;;2.35;1.80;;;7.00;61.30;;;;;;5050549;28;20036;-60
2023/04/13 07:49:23;;;;;;;3.78;3.05;;;6.90;70.90;;;;;;5053395;28;20025;-60
2023/04/13 07:51:53;;;;;;;1.65;1.50;;;7.00;71.90;;;;;;5053439;28;20025;-59
2023/04/13 07:54:18;;;;;;;1.98;1.88;;;6.90;62.80;;;;;;5053119;28;20016;-60
2023/04/13 07:56:44;;;;;;;3.40;2.00;;;6.90;67.90;;;;;;5053340;28;20032;-59
2023/04/13 07:59:12;;;;;;;1.88;1.55;;;6.80;77.00;;;;;;5053010;28;20438;-60
2023/04/13 08:01:38;;;;;;;4.40;1.42;;;6.90;74.00;;;;;;5053099;28;20021;-58
2023/04/13 08:04:04;;;;;;;2.78;1.80;;;7.00;73.90;;;;;;5053161;28;20380;-59
2023/04/13 08:06:30;;;;;;;1.58;1.48;;;7.00;67.70;;;;;;5053144;28;20033;-59
2023/04/13 08:08:56;;;;;;;2.08;1.90;;;7.10;70.30;;;;;;5052923;28;20032;-57
2023/04/13 08:11:22;;;;;;;1.88;1.73;;;7.20;65.40;;;;;;5052914;28;20096;-60
2023/04/13 08:13:48;;;;;;;1.65;1.55;;;7.30;63.60;;;;;;5052731;28;20075;-59
2023/04/13 08:16:14;;;;;;;1.52;1.42;;;7.40;57.10;;;;;;5052332;28;20033;-58
2023/04/13 08:18:41;;;;;;;3.47;1.67;;;7.30;58.90;;;;;;5052839;28;20492;-58
2023/04/13 08:21:11;;;;;;;2.47;1.58;;;7.40;59.00;;;;;;5051358;28;20025;-56
2023/04/13 08:23:41;;;;;;;1.60;1.45;;;7.50;58.10;;;;;;5052743;28;20032;-59
2023/04/13 08:26:26;;;;;;;3.45;2.50;;;7.60;47.70;;;;;;5051364;28;20108;-60
2023/04/13 08:28:52;;;;;;;6.00;3.00;;;7.60;55.50;;;;;;5051384;28;20033;-60
2023/04/13 08:31:18;;;;;;;1.92;1.80;;;7.60;60.90;;;;;;5052524;28;20449;-59
2023/04/13 08:33:43;;;;;;;1.40;1.30;;;7.60;50.80;;;;;;5052865;28;20349;-59
2023/04/13 08:36:09;;;;;;;1.98;1.67;;;7.60;52.50;;;;;;5051082;28;20075;-60
2023/04/13 08:38:35;;;;;;;1.92;1.73;;;7.60;47.90;;;;;;5051181;28;20112;-60
2023/04/13 08:41:02;;;;;;;66.78;29.23;;;7.60;43.50;;;;;;5052255;28;20025;-59
2023/04/13 08:43:28;;;;;;;16.00;7.68;;;7.60;66.00;;;;;;5052526;28;20021;-60
2023/04/13 08:45:53;;;;;;;1.83;1.60;;;7.70;40.80;;;;;;5052454;28;20473;-59
2023/04/13 08:48:21;;;;;;;1.48;1.38;;;7.80;29.00;;;;;;5052122;28;20388;-60
2023/04/13 08:50:52;;;;;;;1.83;1.70;;;7.90;37.10;;;;;;5052369;28;20017;-59
2023/04/13 08:53:18;;;;;;;5.03;3.00;;;8.00;20.90;;;;;;5051824;28;20013;-60
2023/04/13 08:55:44;;;;;;;1.90;1.10;;;8.10;25.40;;;;;;5052053;28;20044;-60
2023/04/13 08:58:19;;;;;;;6.30;5.65;;;8.30;17.10;;;;;;5051340;28;20028;-60
2023/04/13 09:00:48;;;;;;;1.70;1.60;;;8.30;44.90;;;;;;5052098;28;20118;-60
2023/04/13 09:03:22;;;;;;;1.60;1.40;;;8.50;13.10;;;;;;5051984;28;20086;-59
2023/04/13 09:05:58;;;;;;;5.53;2.08;;;8.40;1.00;;;;;;5051904;28;20428;-60
2023/04/13 09:08:25;;;;;;;3.28;1.70;;;8.50;1.60;;;;;;5051827;28;20029;-60
2023/04/13 09:10:53;;;;;;;1.50;1.40;;;8.60;1.00;;;;;;5052007;28;20434;-60
2023/04/13 09:13:18;;;;;;;1.65;1.55;;;8.70;3.10;;;;;;5051738;28;20049;-60
2023/04/13 09:15:46;;;;;;;1.50;1.40;;;8.70;1.00;;;;;;5050418;28;20606;-60
2023/04/13 09:18:12;;;;;;;1.80;1.40;;;8.70;1.00;;;;;;5051988;28;20025;-60
2023/04/13 09:20:38;;;;;;;1.10;1.10;;;8.60;1.00;;;;;;5051698;28;20027;-60
2023/04/13 09:23:14;;;;;;;2.70;1.95;;;8.70;1.00;;;;;;5051546;28;20022;-60
2023/04/13 09:25:41;;;;;;;3.78;2.33;;;8.60;7.80;;;;;;5051651;28;20353;-60
2023/04/13 09:28:16;;;;;;;2.42;2.00;;;8.80;1.00;;;;;;5051517;28;20032;-60
2023/04/13 09:30:41;;;;;;;1.80;1.40;;;8.70;1.00;;;;;;5051761;28;20049;-60
2023/04/13 09:33:09;;;;;;;1.85;1.60;;;8.70;1.00;;;;;;5051262;28;20025;-56
2023/04/13 09:35:36;;;;;;;5.63;3.13;;;8.70;1.00;;;;;;5051508;28;20013;-60
2023/04/13 09:38:03;;;;;;;3.38;1.48;;;8.60;1.00;;;;;;5051363;28;20029;-59
2023/04/13 09:40:29;;;;;;;1.88;1.20;;;8.60;1.00;;;;;;5051414;28;20021;-59
2023/04/13 09:43:08;;;;;;;1.40;1.30;;;8.40;1.00;;;;;;5051068;28;20013;-59
2023/04/13 09:45:35;;;;;;;2.90;1.30;;;8.30;1.00;;;;;;5050321;28;20079;-60
2023/04/13 09:48:14;;;;;;;1.55;1.45;;;8.20;1.00;;;;;;5051324;28;20020;-60
2023/04/13 09:50:40;;;;;;;1.48;1.33;;;8.20;1.00;;;;;;5051041;28;20044;-60
2023/04/13 09:53:12;;;;;;;1.50;1.40;;;8.10;1.00;;;;;;5049130;28;20044;-60
2023/04/13 09:55:39;;;;;;;1.25;1.25;;;8.20;1.00;;;;;;5050885;28;20017;-57
2023/04/13 09:58:23;;;;;;;1.85;1.30;;;8.20;1.00;;;;;;5050476;28;20108;-58
2023/04/13 10:00:50;;;;;;;1.70;1.60;;;8.20;1.00;;;;;;5050507;28;20051;-60
2023/04/13 10:03:21;;;;;;;1.55;1.45;;;8.40;1.00;;;;;;5050877;28;20469;-59
2023/04/13 10:05:47;;;;;;;1.58;1.42;;;8.70;1.00;;;;;;5049538;28;20480;-59
2023/04/13 10:08:13;;;;;;;1.40;1.30;;;8.80;1.00;;;;;;5050675;28;20024;-58
2023/04/13 10:10:39;;;;;;;5.50;1.60;;;8.80;1.00;;;;;;5049838;28;20017;-57
2023/04/13 10:13:15;;;;;;;2.42;1.67;;;8.80;1.00;;;;;;5050343;28;20504;-60
2023/04/13 10:16:15;;;;;;;1.15;1.15;;;8.80;1.00;;;;;;5050807;28;20017;-61
2023/04/13 10:19:00;;;;;;;3.00;1.88;;;8.90;1.00;;;;;;5050994;28;20025;-60
2023/04/13 10:21:38;;;;;;;1.33;1.27;;;8.90;1.00;;;;;;5050754;28;20035;-59
2023/04/13 10:24:08;;;;;;;1.92;1.75;;;8.80;1.00;;;;;;5050458;28;20025;-57
2023/04/13 10:26:38;;;;;;;2.65;1.95;;;8.60;1.00;;;;;;5050614;28;20053;-56
2023/04/13 10:29:05;;;;;;;1.67;1.58;;;8.50;1.00;;;;;;5050394;28;20387;-59
2023/04/13 10:31:38;;;;;;;2.05;1.63;;;8.50;1.00;;;;;;5050536;28;20021;-60
2023/04/13 10:34:08;;;;;;;1.75;1.65;;;8.60;1.00;;;;;;5050550;28;20071;-60
2023/04/13 10:36:40;;;;;;;6.85;1.38;;;8.70;1.00;;;;;;5050524;28;20029;-58
2023/04/13 10:39:07;;;;;;;4.50;1.60;;;8.90;1.00;;;;;;5049065;28;20021;-60
2023/04/13 10:41:33;;;;;;;2.63;1.98;;;8.90;1.00;;;;;;5050280;28;20489;-60
2023/04/13 10:44:06;;;;;;;7.53;2.33;;;9.00;99.90;;;;;;5050468;28;20029;-59
2023/04/13 10:46:33;;;;;;;3.33;2.90;;;9.20;1.00;;;;;;5050655;28;20383;-60
2023/04/13 10:49:00;;;;;;;3.05;1.63;;;9.40;1.00;;;;;;5050157;28;20652;-60
2023/04/13 10:51:40;;;;;;;5.93;2.08;;;9.70;1.00;;;;;;5050376;28;20029;-60
2023/04/13 10:54:09;;;;;;;2.55;1.50;;;9.80;99.90;;;;;;5050132;28;20021;-59
2023/04/13 10:56:35;;;;;;;4.30;2.30;;;9.50;99.90;;;;;;5050084;28;20036;-59
2023/04/13 10:59:01;;;;;;;2.22;1.67;;;9.60;1.00;;;;;;5048924;28;20029;-59
2023/04/13 11:01:28;;;;;;;2.78;1.70;;;9.50;99.90;;;;;;5050319;28;20519;-60
2023/04/13 11:03:55;;;;;;;1.92;1.58;;;9.40;1.00;;;;;;5048959;28;20021;-60
2023/04/13 11:06:21;;;;;;;2.63;1.30;;;9.50;1.00;;;;;;5049915;28;20036;-59
2023/04/13 11:08:47;;;;;;;1.77;1.45;;;9.50;99.90;;;;;;5050171;28;20563;-54
2023/04/13 11:11:22;;;;;;;3.63;1.50;;;9.30;99.90;;;;;;5049993;28;20120;-59
2023/04/13 11:13:48;;;;;;;1.52;1.30;;;9.10;99.90;;;;;;5049999;28;20045;-57
2023/04/13 11:16:14;;;;;;;2.80;1.20;;;9.30;1.00;;;;;;5049518;28;20029;-60
2023/04/13 11:18:40;;;;;;;4.78;1.42;;;9.50;1.00;;;;;;5048789;28;20025;-60
2023/04/13 11:21:15;;;;;;;3.83;1.40;;;9.70;99.90;;;;;;5051130;28;20023;-60
2023/04/13 11:23:41;;;;;;;5.63;3.17;;;9.90;99.90;;;;;;5053914;28;20025;-59
2023/04/13 11:26:07;;;;;;;4.25;1.95;;;9.90;58.80;;;;;;5053744;28;20025;-59
2023/04/13 11:28:41;;;;;;;6.80;2.92;;;9.90;89.60;;;;;;5053890;28;20071;-59
2023/04/13 11:31:07;;;;;;;2.70;2.15;;;9.80;99.90;;;;;;5053715;28;20033;-60
2023/04/13 11:33:34;;;;;;;2.78;2.08;;;9.70;16.00;;;;;;5053670;28;20095;-60
2023/04/13 11:36:01;;;;;;;3.30;1.80;;;9.70;1.00;;;;;;5052515;28;20502;-60
2023/04/13 11:38:27;;;;;;;3.33;1.92;;;9.80;1.00;;;;;;5053676;28;20468;-59
2023/04/13 11:41:02;;;;;;;2.80;1.67;;;9.70;1.00;;;;;;5053642;28;20392;-57
2023/04/13 11:43:28;;;;;;;22.20;11.02;;;9.60;1.00;;;;;;5053642;28;20013;-60
2023/04/13 11:45:54;;;;;;;3.65;2.03;;;9.70;1.00;;;;;;5053724;28;20036;-59
2023/04/13 11:48:20;;;;;;;3.50;2.05;;;9.80;99.90;;;;;;5053209;28;21379;-60
2023/04/13 11:50:48;;;;;;;1.23;1.20;;;9.60;1.00;;;;;;5053649;28;20018;-60
2023/04/13 11:53:15;;;;;;;2.85;2.00;;;9.60;1.00;;;;;;5053108;28;20079;-60
2023/04/13 11:55:41;;;;;;;3.58;1.95;;;9.60;99.90;;;;;;5053315;28;20099;-60
2023/04/13 11:58:09;;;;;;;2.65;1.77;;;9.70;99.90;;;;;;5053272;28;20477;-60
2023/04/13 12:00:40;;;;;;;3.30;1.52;;;9.60;13.20;;;;;;5053332;28;20021;-60
2023/04/13 12:03:18;;;;;;;4.53;1.73;;;9.60;97.80;;;;;;5053237;28;20021;-60
2023/04/13 12:05:44;;;;;;;2.72;2.35;;;9.90;99.90;;;;;;5051837;28;20537;-59
2023/04/13 12:08:22;;;;;;;3.53;2.50;;;9.90;99.90;;;;;;5053062;28;20107;-59
2023/04/13 12:11:02;;;;;;;2.03;1.83;;;9.90;99.90;;;;;;5053174;28;20021;-60
2023/04/13 12:13:40;;;;;;;2.17;1.90;;;9.80;1.00;;;;;;5051538;28;20496;-60
2023/04/13 12:16:06;;;;;;;3.75;1.77;;;9.60;11.50;;;;;;5052767;28;20028;-60
2023/04/13 12:18:41;;;;;;;3.17;2.17;;;9.50;1.00;;;;;;5052964;28;20052;-60
2023/04/13 12:21:15;;;;;;;2.50;2.15;;;9.40;1.00;;;;;;5051418;28;20071;-59
2023/04/13 12:23:50;;;;;;;;;;;9.40;99.90;;;;;;5053158;28;20017;-60
2023/04/13 12:26:16;;;;;;;7.93;4.95;;;9.30;13.70;;;;;;5084642;28;20352;-60
2023/04/13 12:28:42;;;;;;;4.45;3.00;;;9.30;1.00;;;;;;5051557;28;20036;-60
2023/04/13 12:31:11;;;;;;;3.90;3.38;;;9.40;99.90;;;;;;5051268;28;20025;-59
2023/04/13 12:33:37;;;;;;;3.00;2.15;;;9.20;99.90;;;;;;5051531;28;20017;-58
2023/04/13 12:36:05;;;;;;;4.40;2.63;;;9.50;99.90;;;;;;5052439;28;20037;-60
2023/04/13 12:38:31;;;;;;;1.48;1.38;;;9.70;99.90;;;;;;5051152;28;20074;-60
2023/04/13 12:40:58;;;;;;;3.17;1.85;;;9.80;99.90;;;;;;5052462;28;20021;-60
2023/04/13 12:43:25;;;;;;;7.22;1.58;;;9.80;95.10;;;;;;5051140;28;20025;-60
2023/04/13 12:45:51;;;;;;;3.55;1.65;;;9.90;99.90;;;;;;5052540;28;20025;-59
2023/04/13 12:48:17;;;;;;;2.63;1.50;;;9.90;99.90;;;;;;5052147;28;20031;-60
2023/04/13 12:50:43;;;;;;;3.38;2.05;;;9.80;46.30;;;;;;5051143;28;20492;-60
2023/04/13 12:53:10;;;;;;;3.67;2.22;;;10.00;1.00;;;;;;5052053;28;20025;-60
2023/04/13 12:55:40;;;;;;;7.22;3.50;;;10.00;1.00;;;;;;5050895;28;20028;-60
2023/04/13 12:58:06;;;;;;;5.05;2.60;;;9.90;89.20;;;;;;5050684;28;20495;-60
2023/04/13 13:00:32;;;;;;;2.22;1.65;;;10.00;99.90;;;;;;5052048;28;20036;-60
2023/04/13 13:02:57;;;;;;;2.63;1.50;;;9.60;1.00;;;;;;5052008;28;20092;-60